Данни от 22.04.2018 г. 01:49:00

Температура вътрешна: 22.6 °C
Температура външна: 14.1 °C
Атмосферно налягане: 1000.0 hPa
Атмосферно налягане на морско равнище: 1017.8 hPa
Влажност: 51.7 %



История от последните 24 часа

Дата и часTin [°C]P [hPa]Psl [hPa]H [%]Tout [°C]
   22.04.2018 г. 01:30:00      22.6      1000.0      1017.9      51.7      14.5   
   22.04.2018 г. 01:00:00      22.6      1000.1      1018.0      51.7      14.3   
   22.04.2018 г. 00:30:00      22.6      1000.4      1018.3      51.3      15.0   
   22.04.2018 г. 00:00:00      22.6      1000.6      1018.5      50.4      15.4   
   21.04.2018 г. 23:30:00      22.2      1000.7      1018.6      50.0      15.4   
   21.04.2018 г. 23:00:00      22.7      1000.8      1018.6      51.8      15.8   
   21.04.2018 г. 22:30:00      22.7      1000.8      1018.7      52.2      15.6   
   21.04.2018 г. 22:00:00      22.7      1000.8      1018.7      52.3      15.3   
   21.04.2018 г. 21:30:00      22.6      1000.8      1018.6      52.3      16.3   
   21.04.2018 г. 21:00:00      22.5      1000.6      1018.4      52.0      17.0   
   21.04.2018 г. 20:30:00      22.4      1000.6      1018.4      51.5      18.0   
   21.04.2018 г. 20:00:00      22.0      1000.5      1018.3      51.5      20.8   
   21.04.2018 г. 19:30:59      22.0      1000.5      1018.3      50.9      22.1   
   21.04.2018 г. 19:30:00      22.0      1000.5      1018.4      50.9      22.4   
   21.04.2018 г. 19:00:00      22.0      1000.7      1018.5      51.0      23.9   
   21.04.2018 г. 18:30:00      21.9      1001.1      1019.0      50.9      24.5   
   21.04.2018 г. 18:00:00      22.0      1001.3      1019.2      51.8      24.6   
   21.04.2018 г. 17:30:00      22.0      1001.7      1019.5      49.5      23.9   
   21.04.2018 г. 17:00:00      22.0      1001.9      1019.8      49.1      26.4   
   21.04.2018 г. 16:30:00      22.5      1002.3      1020.1      49.7      26.5   
   21.04.2018 г. 16:00:00      22.4      1002.6      1020.5      48.9      25.3   
   21.04.2018 г. 15:30:00      22.3      1003.0      1021.0      48.9      24.1   
   21.04.2018 г. 15:00:00      22.2      1003.5      1021.4      48.7      22.9   
   21.04.2018 г. 14:30:00      22.1      1004.0      1021.9      48.5      21.7   
   21.04.2018 г. 14:00:00      22.0      1004.1      1022.0      47.6      20.5   
   21.04.2018 г. 13:30:00      22.0      1004.4      1022.4      47.1      19.9   
   21.04.2018 г. 13:00:00      21.8      1004.7      1022.6      47.0      19.1   
   21.04.2018 г. 12:30:00      21.8      1005.1      1023.0      47.0      18.8   
   21.04.2018 г. 12:00:00      21.9      1005.4      1023.3      48.6      17.9   
   21.04.2018 г. 11:30:00      21.9      1005.5      1023.5      48.2      17.3   
   21.04.2018 г. 11:00:00      21.9      1005.7      1023.6      48.6      16.1   
   21.04.2018 г. 10:30:00      21.9      1005.7      1023.7      48.7      15.0   
   21.04.2018 г. 10:00:00      22.0      1005.9      1023.9      49.0      14.1   
   21.04.2018 г. 09:30:00      22.0      1005.9      1023.8      48.6      13.1   
   21.04.2018 г. 09:00:00      22.1      1006.0      1024.0      48.1      12.3   
   21.04.2018 г. 08:30:00      22.2      1005.8      1023.7      47.9      11.3   
   21.04.2018 г. 08:00:00      22.1      1005.7      1023.6      47.0      10.5   
   21.04.2018 г. 07:30:00      22.5      1005.7      1023.6      50.4      10.0   
   21.04.2018 г. 07:00:00      22.8      1005.4      1023.3      51.5      9.9   
   21.04.2018 г. 06:30:00      23.0      1005.5      1023.4      54.0      10.0   
   21.04.2018 г. 06:00:59      23.0      1005.4      1023.4      53.7      10.1   
   21.04.2018 г. 05:30:00      23.0      1005.5      1023.4      53.2      10.3   
   21.04.2018 г. 05:00:59      23.0      1005.7      1023.6      53.5      10.0   
   21.04.2018 г. 04:30:00      22.8      1005.8      1023.7      53.0      10.1   
   21.04.2018 г. 04:00:00      22.7      1005.8      1023.8      53.3      9.8   
   21.04.2018 г. 03:30:00      22.6      1005.8      1023.8      53.0      9.8   
   21.04.2018 г. 03:00:00      22.5      1005.7      1023.6      52.5      9.8   
   21.04.2018 г. 02:30:00      22.4      1005.7      1023.7      52.1      9.6   

BaroSL graphic

TEMPE graphic